Time;durP1;ratioP1;P1;durP2;ratioP2;P2;SDS_P1;SDS_P2;PMS_P1;PMS_P2;Temp;Humidity;BMP_temperature;BMP_pressure;BME280_temperature;BME280_humidity;BME280_pressure;Samples;Min_cycle;Max_cycle;Signal;HPM_P1;HPM_P2
2023/05/24 00:01:24;;;;;;;10.20;2.50;;;11.50;99.90;;;;;;5080280;28;20252;-61
2023/05/24 00:03:52;;;;;;;7.37;2.83;;;11.60;99.90;;;;;;5077365;28;20206;-61
2023/05/24 00:06:19;;;;;;;8.97;3.17;;;11.40;99.90;;;;;;5085279;28;20221;-61
2023/05/24 00:08:46;;;;;;;9.70;2.80;;;11.30;99.90;;;;;;5079416;28;20212;-65
2023/05/24 00:11:13;;;;;;;9.30;2.70;;;11.40;99.90;;;;;;5076819;28;20225;-61
2023/05/24 00:13:40;;;;;;;8.63;2.93;;;11.50;99.90;;;;;;5074498;28;20197;-61
2023/05/24 00:16:07;;;;;;;10.37;2.83;;;11.50;99.90;;;;;;5084792;28;20220;-61
2023/05/24 00:18:34;;;;;;;5.93;2.70;;;11.40;99.90;;;;;;5076191;28;20205;-62
2023/05/24 00:21:01;;;;;;;10.50;2.87;;;11.60;99.90;;;;;;5082437;28;20279;-61
2023/05/24 00:23:27;;;;;;;14.37;3.03;;;11.60;99.90;;;;;;5080867;28;20204;-61
2023/05/24 00:25:54;;;;;;;8.87;2.40;;;11.50;99.90;;;;;;5066582;28;20220;-61
2023/05/24 00:28:21;;;;;;;7.00;3.03;;;11.50;99.90;;;;;;5080700;28;20209;-61
2023/05/24 00:30:49;;;;;;;12.77;3.83;;;11.50;99.90;;;;;;5079054;28;20410;-62
2023/05/24 00:33:16;;;;;;;13.93;5.17;;;11.40;99.90;;;;;;5081679;28;20588;-61
2023/05/24 00:35:44;;;;;;;16.20;3.47;;;11.30;99.90;;;;;;5079939;28;20657;-61
2023/05/24 00:38:11;;;;;;;9.10;2.67;;;11.40;99.90;;;;;;5061385;28;20236;-61
2023/05/24 00:40:38;;;;;;;9.60;3.20;;;11.40;99.90;;;;;;5077940;28;20257;-61
2023/05/24 00:43:05;;;;;;;10.60;4.07;;;11.40;99.90;;;;;;5078759;28;20204;-61
2023/05/24 00:45:32;;;;;;;9.03;2.93;;;11.40;99.90;;;;;;5083931;28;20217;-61
2023/05/24 00:48:00;;;;;;;10.00;2.90;;;11.40;99.90;;;;;;5082874;28;20215;-61
2023/05/24 00:50:27;;;;;;;6.50;2.30;;;11.50;99.90;;;;;;5080138;28;20303;-61
2023/05/24 00:52:57;;;;;;;7.60;2.40;;;11.30;99.90;;;;;;5082652;28;20205;-62
2023/05/24 00:55:23;;;;;;;10.47;2.60;;;11.40;99.90;;;;;;5082905;28;20217;-61
2023/05/24 00:57:51;;;;;;;10.63;2.50;;;11.20;99.90;;;;;;5082053;28;20198;-61
2023/05/24 01:00:18;;;;;;;10.90;2.63;;;11.30;99.90;;;;;;5081261;28;20689;-61
2023/05/24 01:02:47;;;;;;;9.20;2.90;;;11.30;99.90;;;;;;5080245;28;20194;-62
2023/05/24 01:05:16;;;;;;;6.60;2.40;;;11.10;99.90;;;;;;5057485;28;20197;-61
2023/05/24 01:07:46;;;;;;;12.43;3.43;;;11.20;99.90;;;;;;5063923;28;20207;-61
2023/05/24 01:10:38;;;;;;;5.00;2.87;;;11.00;99.90;;;;;;5081123;28;20377;-61
2023/05/24 01:13:30;;;;;;;10.63;2.83;;;10.90;99.90;;;;;;5060716;28;20204;-61
2023/05/24 01:16:06;;;;;;;10.57;3.40;;;10.90;99.90;;;;;;5080119;28;20213;-61
2023/05/24 01:18:55;;;;;;;5.40;2.27;;;10.80;99.90;;;;;;5059631;28;20208;-61
2023/05/24 01:21:37;;;;;;;12.23;3.00;;;10.50;99.90;;;;;;5080495;28;20293;-61
2023/05/24 01:24:17;;;;;;;6.60;2.93;;;10.40;99.90;;;;;;5081136;28;20207;-61
2023/05/24 01:27:06;;;;;;;9.93;3.37;;;10.40;99.90;;;;;;5079149;28;20245;-61
2023/05/24 01:29:34;;;;;;;9.37;2.93;;;10.40;99.90;;;;;;5060429;28;20208;-61
2023/05/24 01:32:02;;;;;;;8.90;2.87;;;10.50;99.90;;;;;;5080026;28;20207;-61
2023/05/24 01:34:29;;;;;;;7.90;2.80;;;10.40;99.90;;;;;;5077212;28;20551;-61
2023/05/24 01:36:56;;;;;;;8.90;3.13;;;10.20;99.90;;;;;;5080728;28;20196;-61
2023/05/24 01:39:26;;;;;;;8.27;2.73;;;10.20;99.90;;;;;;5081833;28;20279;-61
2023/05/24 01:41:56;;;;;;;10.83;3.50;;;10.30;99.90;;;;;;5083741;28;20501;-61
2023/05/24 01:44:44;;;;;;;8.13;3.20;;;10.10;99.90;;;;;;5076379;28;20218;-61
2023/05/24 01:47:40;;;;;;;6.40;2.97;;;10.10;99.90;;;;;;5079874;28;20216;-61
2023/05/24 01:50:23;;;;;;;8.40;2.93;;;10.20;99.90;;;;;;5079009;28;20200;-61
2023/05/24 01:52:53;;;;;;;10.37;3.00;;;10.00;99.90;;;;;;5080353;28;20242;-61
2023/05/24 01:55:21;;;;;;;7.70;2.70;;;10.00;99.90;;;;;;5059461;28;20883;-61
2023/05/24 01:57:50;;;;;;;10.00;3.00;;;10.10;99.90;;;;;;5079380;28;20199;-61
2023/05/24 02:00:19;;;;;;;4.20;2.53;;;10.00;99.90;;;;;;5081870;28;21025;-61
2023/05/24 02:02:47;;;;;;;7.30;3.07;;;10.00;99.90;;;;;;5078578;28;20199;-61
2023/05/24 02:05:14;;;;;;;8.50;3.00;;;10.10;99.90;;;;;;5077528;28;20205;-61
2023/05/24 02:07:41;;;;;;;9.23;3.33;;;10.10;99.90;;;;;;5078522;28;20698;-61
2023/05/24 02:10:08;;;;;;;5.70;3.40;;;10.10;99.90;;;;;;5082011;28;20215;-61
2023/05/24 02:12:35;;;;;;;11.33;3.47;;;10.20;99.90;;;;;;5058204;28;20205;-61
2023/05/24 02:15:03;;;;;;;11.77;3.03;;;10.10;99.90;;;;;;5043115;28;20244;-61
2023/05/24 02:17:31;;;;;;;8.03;3.20;;;10.20;99.90;;;;;;5075173;28;20211;-62
2023/05/24 02:19:59;;;;;;;7.13;2.97;;;10.20;99.90;;;;;;5078273;28;20680;-62
2023/05/24 02:22:27;;;;;;;9.73;3.50;;;10.00;99.90;;;;;;5069421;28;20304;-61
2023/05/24 02:24:54;;;;;;;8.90;3.13;;;9.90;99.90;;;;;;5075887;28;20252;-61
2023/05/24 02:27:21;;;;;;;13.33;3.20;;;9.90;99.90;;;;;;5079672;28;20239;-62
2023/05/24 02:29:48;;;;;;;7.10;3.20;;;10.00;99.90;;;;;;5078747;28;20320;-61
2023/05/24 02:32:15;;;;;;;12.13;3.60;;;10.20;99.90;;;;;;5072534;28;20756;-61
2023/05/24 02:34:42;;;;;;;8.70;3.70;;;10.30;99.90;;;;;;5075967;28;20199;-61
2023/05/24 02:37:13;;;;;;;12.03;2.90;;;10.30;99.90;;;;;;5077783;28;20207;-61
2023/05/24 02:39:41;;;;;;;11.50;3.90;;;10.20;99.90;;;;;;5081897;28;20203;-61
2023/05/24 02:42:08;;;;;;;13.17;3.90;;;10.20;99.90;;;;;;5080292;28;20205;-61
2023/05/24 02:44:36;;;;;;;9.03;3.23;;;10.30;99.90;;;;;;5074930;28;20675;-61
2023/05/24 02:47:03;;;;;;;7.40;3.93;;;10.20;99.90;;;;;;5075454;28;20208;-61
2023/05/24 02:49:30;;;;;;;12.57;4.30;;;10.20;99.90;;;;;;5075754;28;20514;-61
2023/05/24 02:51:56;;;;;;;13.90;4.17;;;10.20;99.90;;;;;;5078960;28;20203;-61
2023/05/24 02:54:23;;;;;;;12.03;3.60;;;10.20;99.90;;;;;;5076544;28;20710;-61
2023/05/24 02:56:50;;;;;;;13.93;3.70;;;10.20;99.90;;;;;;5077527;28;22234;-61
2023/05/24 02:59:17;;;;;;;8.60;3.93;;;10.30;99.90;;;;;;5078492;28;20202;-61
2023/05/24 03:01:44;;;;;;;10.23;4.00;;;10.40;99.90;;;;;;5079554;28;20192;-61
2023/05/24 03:04:11;;;;;;;13.63;4.03;;;10.30;99.90;;;;;;5075220;28;20199;-61
2023/05/24 03:06:38;;;;;;;11.37;3.73;;;10.30;99.90;;;;;;5077333;28;20977;-61
2023/05/24 03:09:05;;;;;;;13.07;3.97;;;10.40;99.90;;;;;;5078782;28;20193;-61
2023/05/24 03:11:32;;;;;;;10.77;4.03;;;10.40;99.90;;;;;;5078934;28;20206;-61
2023/05/24 03:13:59;;;;;;;14.27;4.43;;;10.50;99.90;;;;;;5072651;28;20207;-61
2023/05/24 03:16:26;;;;;;;7.90;3.60;;;10.50;99.90;;;;;;5079292;28;20199;-62
2023/05/24 03:18:54;;;;;;;9.93;4.23;;;10.40;99.90;;;;;;5075116;28;20215;-61
2023/05/24 03:21:22;;;;;;;13.13;5.40;;;10.40;99.90;;;;;;5077285;28;20210;-61
2023/05/24 03:23:49;;;;;;;10.23;4.50;;;10.50;99.90;;;;;;5077635;28;20238;-61
2023/05/24 03:26:17;;;;;;;12.03;3.80;;;10.50;99.90;;;;;;5081275;28;20546;-61
2023/05/24 03:28:44;;;;;;;13.57;3.80;;;10.40;99.90;;;;;;5078241;28;20303;-61
2023/05/24 03:31:11;;;;;;;13.50;4.37;;;10.30;99.90;;;;;;5077051;28;20199;-61
2023/05/24 03:33:38;;;;;;;15.53;4.37;;;10.40;99.90;;;;;;5064276;28;20224;-61
2023/05/24 03:36:06;;;;;;;10.77;4.23;;;10.40;99.90;;;;;;5081894;28;20192;-61
2023/05/24 03:38:32;;;;;;;8.63;3.73;;;10.30;99.90;;;;;;5082100;28;20264;-61
2023/05/24 03:40:59;;;;;;;12.90;4.30;;;10.40;99.90;;;;;;5080867;28;20281;-61
2023/05/24 03:43:26;;;;;;;12.57;4.10;;;10.30;99.90;;;;;;5085750;28;20201;-61
2023/05/24 03:45:53;;;;;;;16.40;4.53;;;10.40;99.90;;;;;;5077626;28;20230;-61
2023/05/24 03:48:20;;;;;;;7.10;3.73;;;10.40;99.90;;;;;;5077847;28;20221;-61
2023/05/24 03:50:47;;;;;;;13.47;3.87;;;10.30;99.90;;;;;;5062928;28;20199;-61
2023/05/24 03:53:14;;;;;;;9.60;4.20;;;10.30;99.90;;;;;;5069045;28;21652;-61
2023/05/24 03:55:41;;;;;;;10.27;3.83;;;10.20;99.90;;;;;;5083902;28;20566;-61
2023/05/24 03:58:08;;;;;;;6.97;4.00;;;10.20;99.90;;;;;;5088183;28;20260;-65
2023/05/24 04:00:35;;;;;;;10.03;3.83;;;10.30;99.90;;;;;;5082411;28;20575;-61
2023/05/24 04:03:05;;;;;;;9.77;4.07;;;10.20;99.90;;;;;;5059462;28;20248;-61
2023/05/24 04:05:33;;;;;;;11.67;4.10;;;10.10;99.90;;;;;;5080410;28;20206;-61
2023/05/24 04:08:00;;;;;;;12.70;4.10;;;10.20;99.90;;;;;;5082365;28;20971;-61
2023/05/24 04:10:27;;;;;;;10.83;4.30;;;10.30;99.90;;;;;;5086982;28;20201;-61
2023/05/24 04:12:55;;;;;;;8.67;4.03;;;10.30;99.90;;;;;;5085724;28;22389;-61
2023/05/24 04:15:23;;;;;;;8.53;3.70;;;10.30;99.90;;;;;;5088332;28;20551;-61
2023/05/24 04:17:53;;;;;;;12.90;4.03;;;10.30;99.90;;;;;;5069598;28;20573;-61
2023/05/24 04:20:24;;;;;;;19.50;5.13;;;10.10;99.90;;;;;;5081511;28;20290;-61
2023/05/24 04:22:51;;;;;;;11.57;4.60;;;10.20;99.90;;;;;;5080047;28;20245;-61
2023/05/24 04:25:19;;;;;;;13.17;5.27;;;10.30;99.90;;;;;;5083636;28;20208;-61
2023/05/24 04:27:49;;;;;;;12.63;4.97;;;10.20;99.90;;;;;;5082897;28;20594;-61
2023/05/24 04:30:16;;;;;;;11.10;4.73;;;10.10;99.90;;;;;;5061534;28;20199;-61
2023/05/24 04:32:43;;;;;;;12.70;5.07;;;10.10;99.90;;;;;;5076951;28;20223;-61
2023/05/24 04:35:10;;;;;;;10.87;4.30;;;10.20;99.90;;;;;;5060111;28;20565;-61
2023/05/24 04:37:39;;;;;;;17.43;4.93;;;10.30;99.90;;;;;;5079540;28;20573;-61
2023/05/24 04:40:07;;;;;;;10.67;4.70;;;10.10;99.90;;;;;;5078437;28;20211;-61
2023/05/24 04:42:35;;;;;;;15.97;5.37;;;10.20;99.90;;;;;;5075024;28;20208;-62
2023/05/24 04:45:02;;;;;;;11.40;3.77;;;10.40;99.90;;;;;;5066230;28;20290;-61
2023/05/24 04:47:29;;;;;;;11.53;4.67;;;10.40;99.90;;;;;;5076159;28;20226;-61
2023/05/24 04:49:56;;;;;;;10.23;4.07;;;10.50;99.90;;;;;;5079767;28;20563;-61
2023/05/24 04:52:22;;;;;;;11.80;4.40;;;10.40;99.90;;;;;;5056302;28;20570;-61
2023/05/24 04:54:50;;;;;;;10.27;4.30;;;10.30;99.90;;;;;;5075356;28;20667;-61
2023/05/24 04:57:17;;;;;;;10.87;4.50;;;10.10;99.90;;;;;;5073319;28;20648;-61
2023/05/24 04:59:43;;;;;;;12.03;4.03;;;10.10;99.90;;;;;;5060595;28;20210;-61
2023/05/24 05:02:11;;;;;;;10.97;4.17;;;10.00;99.90;;;;;;5059024;28;20586;-61
2023/05/24 05:04:38;;;;;;;9.10;4.20;;;10.00;99.90;;;;;;5053784;28;20222;-61
2023/05/24 05:07:05;;;;;;;9.27;4.60;;;10.00;99.90;;;;;;5079599;28;20215;-66
2023/05/24 05:09:32;;;;;;;12.33;4.30;;;10.00;99.90;;;;;;5060921;28;20210;-61
2023/05/24 05:11:59;;;;;;;9.97;4.37;;;10.20;99.90;;;;;;5070084;28;20211;-61
2023/05/24 05:14:26;;;;;;;17.50;5.00;;;10.20;99.90;;;;;;5083583;28;20198;-61
2023/05/24 05:16:53;;;;;;;9.63;4.23;;;10.20;99.90;;;;;;5085202;28;20196;-61
2023/05/24 05:19:20;;;;;;;16.53;5.40;;;10.30;99.90;;;;;;5079125;28;20288;-61
2023/05/24 05:21:47;;;;;;;11.67;4.80;;;10.60;99.90;;;;;;5061698;28;21659;-61
2023/05/24 05:24:15;;;;;;;11.87;4.57;;;10.80;99.90;;;;;;5080294;28;20239;-61
2023/05/24 05:26:42;;;;;;;16.73;4.57;;;11.00;99.90;;;;;;5078155;28;20243;-61
2023/05/24 05:29:09;;;;;;;17.90;5.43;;;11.20;99.90;;;;;;5081279;28;20211;-61
2023/05/24 05:31:36;;;;;;;15.87;5.57;;;11.40;99.90;;;;;;5081594;28;20200;-61
2023/05/24 05:34:03;;;;;;;13.17;5.60;;;11.40;99.90;;;;;;5056229;28;20272;-61
2023/05/24 05:36:31;;;;;;;13.47;4.67;;;11.30;99.90;;;;;;5057488;28;20683;-61
2023/05/24 05:38:58;;;;;;;15.47;5.20;;;11.50;99.90;;;;;;5080503;28;20208;-61
2023/05/24 05:41:24;;;;;;;10.53;4.40;;;11.60;99.90;;;;;;5084198;28;20341;-61
2023/05/24 05:43:51;;;;;;;11.67;4.87;;;11.40;99.90;;;;;;5076806;28;20200;-61
2023/05/24 05:46:20;;;;;;;14.03;4.97;;;11.60;99.90;;;;;;5079757;28;20220;-62
2023/05/24 05:48:47;;;;;;;14.00;4.33;;;11.70;99.90;;;;;;5077235;28;20233;-62
2023/05/24 05:51:14;;;;;;;16.07;5.37;;;11.60;99.90;;;;;;5082988;28;20202;-60
2023/05/24 05:53:41;;;;;;;15.07;5.20;;;11.80;99.90;;;;;;5075875;28;20203;-59
2023/05/24 05:56:07;;;;;;;16.67;5.27;;;11.80;99.90;;;;;;5077082;28;20234;-59
2023/05/24 05:58:34;;;;;;;13.97;4.33;;;11.70;99.90;;;;;;5079054;28;20203;-60
2023/05/24 06:01:01;;;;;;;15.77;5.43;;;11.90;99.90;;;;;;4716739;28;9999651;-61
2023/05/24 06:03:28;;;;;;;13.50;4.80;;;11.90;99.90;;;;;;5069049;28;20328;-62
2023/05/24 06:05:56;;;;;;;11.30;4.43;;;12.10;99.90;;;;;;5066355;28;20223;-60
2023/05/24 06:08:22;;;;;;;11.60;3.90;;;12.20;99.90;;;;;;5071026;28;20263;-60
2023/05/24 06:10:49;;;;;;;14.37;4.53;;;12.10;99.90;;;;;;5067374;28;20224;-60
2023/05/24 06:13:18;;;;;;;15.07;4.67;;;12.10;99.90;;;;;;5072582;28;20674;-60
2023/05/24 06:15:45;;;;;;;14.77;5.33;;;12.10;99.90;;;;;;5054979;28;20199;-60
2023/05/24 06:18:14;;;;;;;16.23;5.13;;;12.40;99.90;;;;;;5051181;28;20305;-62
2023/05/24 06:20:41;;;;;;;17.27;5.77;;;12.40;99.90;;;;;;5074636;28;20195;-61
2023/05/24 06:23:08;;;;;;;20.07;5.63;;;12.50;99.90;;;;;;5058657;28;20245;-61
2023/05/24 06:25:35;;;;;;;35.50;8.40;;;12.30;99.90;;;;;;5077116;28;20307;-61
2023/05/24 06:28:01;;;;;;;21.93;6.70;;;12.30;99.90;;;;;;5072125;28;20253;-61
2023/05/24 06:30:28;;;;;;;14.00;5.67;;;12.50;99.90;;;;;;5077611;28;20194;-61
2023/05/24 06:32:56;;;;;;;20.10;5.40;;;12.50;99.90;;;;;;5072984;28;20749;-61
2023/05/24 06:35:23;;;;;;;14.60;5.00;;;12.80;99.90;;;;;;5065450;28;20541;-60
2023/05/24 06:37:50;;;;;;;19.37;5.60;;;12.90;99.90;;;;;;5066892;28;20203;-60
2023/05/24 06:40:17;;;;;;;15.63;5.43;;;13.10;99.90;;;;;;5066996;28;20195;-60
2023/05/24 06:42:44;;;;;;;11.43;4.80;;;13.20;99.90;;;;;;5070946;28;20579;-63
2023/05/24 06:45:12;;;;;;;15.03;5.80;;;13.30;99.90;;;;;;5061772;28;20611;-60
2023/05/24 06:47:39;;;;;;;12.47;5.50;;;13.40;99.90;;;;;;5078034;28;20280;-61
2023/05/24 06:50:08;;;;;;;15.03;5.97;;;13.40;99.90;;;;;;5068395;28;20774;-63
2023/05/24 06:52:35;;;;;;;14.73;5.20;;;13.40;99.90;;;;;;5069893;28;20207;-64
2023/05/24 06:55:02;;;;;;;14.67;6.03;;;13.20;99.90;;;;;;5072611;28;20319;-63
2023/05/24 06:57:29;;;;;;;15.73;6.07;;;13.50;99.90;;;;;;5048575;28;20581;-62
2023/05/24 06:59:56;;;;;;;17.00;5.07;;;13.70;99.90;;;;;;5075213;28;20726;-62
2023/05/24 07:02:26;;;;;;;13.63;5.27;;;13.70;99.90;;;;;;5035853;28;20214;-62
2023/05/24 07:04:53;;;;;;;15.37;5.00;;;13.30;99.90;;;;;;5073178;28;20209;-62
2023/05/24 07:07:20;;;;;;;14.77;4.90;;;13.50;99.90;;;;;;5058312;28;20262;-62
2023/05/24 07:09:47;;;;;;;14.27;4.87;;;13.20;99.90;;;;;;5014530;28;20211;-65
2023/05/24 07:12:14;;;;;;;14.43;4.70;;;13.50;99.90;;;;;;5075176;28;20191;-62
2023/05/24 07:14:41;;;;;;;9.07;4.20;;;13.40;99.90;;;;;;5086954;28;20204;-62
2023/05/24 07:17:08;;;;;;;16.57;5.27;;;13.60;99.90;;;;;;5063623;28;20202;-62
2023/05/24 07:19:35;;;;;;;13.37;4.70;;;13.20;99.90;;;;;;5078849;28;20196;-62
2023/05/24 07:22:02;;;;;;;10.77;4.27;;;13.60;99.90;;;;;;5076816;28;20187;-62
2023/05/24 07:24:30;;;;;;;14.83;5.23;;;14.00;99.90;;;;;;5033166;28;20231;-62
2023/05/24 07:26:57;;;;;;;14.77;5.00;;;14.00;99.90;;;;;;5036420;28;20197;-62
2023/05/24 07:29:24;;;;;;;15.23;4.77;;;14.10;99.90;;;;;;5044406;28;20335;-62
2023/05/24 07:31:54;;;;;;;14.30;4.30;;;14.50;99.90;;;;;;5037955;28;20674;-62
2023/05/24 07:34:22;;;;;;;11.00;4.53;;;14.90;99.90;;;;;;5033194;28;20299;-62
2023/05/24 07:36:49;;;;;;;12.47;4.40;;;15.10;99.90;;;;;;5040274;28;20275;-62
2023/05/24 07:39:16;;;;;;;10.90;3.93;;;15.20;99.90;;;;;;5031638;28;20291;-61
2023/05/24 07:41:43;;;;;;;9.47;4.23;;;15.10;99.90;;;;;;5037451;28;20205;-61
2023/05/24 07:44:11;;;;;;;9.37;4.43;;;15.40;99.90;;;;;;5035153;28;20258;-59
2023/05/24 07:46:38;;;;;;;11.17;4.87;;;15.30;99.90;;;;;;5039201;28;21154;-59
2023/05/24 07:49:05;;;;;;;9.93;3.83;;;15.30;99.90;;;;;;5040003;28;20222;-59
2023/05/24 07:51:32;;;;;;;14.80;3.80;;;14.90;99.90;;;;;;5046319;28;20631;-59
2023/05/24 07:53:59;;;;;;;12.67;3.50;;;15.20;99.90;;;;;;5044124;28;20217;-59
2023/05/24 07:56:26;;;;;;;9.13;3.10;;;15.30;99.90;;;;;;5029716;28;20249;-58
2023/05/24 07:58:58;;;;;;;8.97;3.67;;;15.80;99.90;;;;;;5042940;28;20272;-58
2023/05/24 08:01:25;;;;;;;11.60;3.57;;;15.30;99.90;;;;;;5039715;28;20205;-59
2023/05/24 08:03:52;;;;;;;10.63;3.07;;;15.00;99.90;;;;;;5045566;28;20199;-58
2023/05/24 08:06:19;;;;;;;13.83;3.17;;;15.20;99.90;;;;;;5041858;28;20200;-59
2023/05/24 08:08:46;;;;;;;11.07;3.60;;;15.50;99.90;;;;;;5044215;28;20346;-59
2023/05/24 08:11:13;;;;;;;10.00;2.80;;;15.80;99.90;;;;;;5059103;28;20194;-59
2023/05/24 08:13:40;;;;;;;9.27;3.00;;;15.60;99.90;;;;;;5051945;28;20203;-59
2023/05/24 08:16:07;;;;;;;12.73;3.30;;;15.50;99.90;;;;;;5040612;28;20701;-58
2023/05/24 08:18:34;;;;;;;9.27;2.93;;;15.30;99.90;;;;;;5044840;28;21815;-59
2023/05/24 08:21:01;;;;;;;7.67;2.50;;;15.20;99.90;;;;;;5047857;28;20210;-59
2023/05/24 08:23:28;;;;;;;8.20;2.63;;;14.70;99.90;;;;;;5071162;28;20235;-58
2023/05/24 08:25:57;;;;;;;7.40;2.60;;;14.70;99.90;;;;;;5070766;28;20227;-59
2023/05/24 08:28:25;;;;;;;10.57;2.53;;;15.00;99.90;;;;;;5086808;28;20222;-59
2023/05/24 08:30:52;;;;;;;11.00;2.90;;;15.30;99.90;;;;;;5083943;28;20201;-59
2023/05/24 08:33:21;;;;;;;10.10;3.23;;;15.60;99.90;;;;;;5086855;28;20655;-59
2023/05/24 08:35:50;;;;;;;14.53;3.47;;;15.30;99.90;;;;;;5088715;28;20203;-59
2023/05/24 08:38:17;;;;;;;8.40;2.70;;;15.10;99.90;;;;;;5088772;28;20202;-60
2023/05/24 08:40:44;;;;;;;8.07;2.70;;;15.00;99.90;;;;;;5087267;28;20206;-59
2023/05/24 08:43:12;;;;;;;11.60;3.20;;;14.80;99.90;;;;;;5086731;28;20197;-59
2023/05/24 08:45:39;;;;;;;7.00;2.57;;;15.40;99.90;;;;;;5062411;28;20205;-59
2023/05/24 08:48:07;;;;;;;10.90;2.70;;;15.60;99.90;;;;;;5064442;28;20729;-60
2023/05/24 08:50:35;;;;;;;9.27;2.70;;;16.50;99.90;;;;;;5069685;28;20300;-64
2023/05/24 08:53:04;;;;;;;12.40;3.60;;;17.00;99.90;;;;;;5086686;28;20561;-60
2023/05/24 08:55:32;;;;;;;8.27;3.07;;;17.10;99.90;;;;;;5087051;28;20724;-59
2023/05/24 08:57:59;;;;;;;9.07;2.60;;;17.10;99.90;;;;;;5088890;28;20211;-59
2023/05/24 09:00:26;;;;;;;8.73;3.10;;;17.00;99.90;;;;;;5084600;28;20195;-59
2023/05/24 09:02:57;;;;;;;12.67;2.83;;;17.40;99.90;;;;;;5065603;28;20213;-59
2023/05/24 09:05:25;;;;;;;8.23;2.83;;;17.20;99.90;;;;;;5087213;28;20207;-59
2023/05/24 09:07:54;;;;;;;11.57;2.70;;;16.90;99.90;;;;;;5069698;28;20214;-60
2023/05/24 09:10:23;;;;;;;10.87;3.17;;;17.30;99.90;;;;;;5085987;28;20195;-59
2023/05/24 09:12:56;;;;;;;5.87;2.70;;;17.60;99.90;;;;;;5085545;28;20677;-59
2023/05/24 09:15:23;;;;;;;10.30;3.30;;;17.30;99.90;;;;;;5085408;28;20787;-60
2023/05/24 09:17:50;;;;;;;5.90;2.20;;;17.00;99.90;;;;;;5080693;28;20677;-60
2023/05/24 09:20:18;;;;;;;8.47;2.50;;;17.40;99.90;;;;;;5083022;28;20204;-59
2023/05/24 09:22:50;;;;;;;12.43;3.37;;;17.70;99.90;;;;;;5086552;28;20220;-60
2023/05/24 09:25:22;;;;;;;11.47;3.07;;;17.70;99.90;;;;;;5086134;28;20230;-59
2023/05/24 09:27:50;;;;;;;9.73;2.57;;;17.60;99.90;;;;;;5087571;28;20203;-59
2023/05/24 09:30:18;;;;;;;9.23;2.73;;;17.00;99.90;;;;;;5086195;28;20796;-59
2023/05/24 09:32:55;;;;;;;7.37;2.30;;;16.80;99.90;;;;;;5085185;28;20690;-59
2023/05/24 09:35:23;;;;;;;5.83;2.30;;;17.10;99.90;;;;;;5088040;28;20857;-60
2023/05/24 09:37:54;;;;;;;6.33;2.17;;;17.10;99.90;;;;;;5087349;28;20203;-58
2023/05/24 09:40:21;;;;;;;9.40;2.53;;;17.10;99.90;;;;;;5084117;28;20237;-58
2023/05/24 09:42:51;;;;;;;9.40;2.80;;;17.20;99.90;;;;;;5087690;28;20343;-57
2023/05/24 09:45:23;;;;;;;8.43;2.70;;;17.40;99.90;;;;;;5086029;28;20202;-60
2023/05/24 09:47:51;;;;;;;4.37;2.00;;;17.60;99.90;;;;;;5069802;28;20598;-58
2023/05/24 09:50:19;;;;;;;10.07;2.97;;;18.10;99.90;;;;;;5087169;28;20210;-60
2023/05/24 09:52:46;;;;;;;10.07;2.60;;;18.10;99.90;;;;;;5086217;28;20293;-61
2023/05/24 09:55:17;;;;;;;7.83;2.77;;;18.30;99.90;;;;;;5085525;28;20214;-58
2023/05/24 09:57:51;;;;;;;5.77;2.40;;;18.50;99.90;;;;;;5086092;28;20631;-58
2023/05/24 10:00:22;;;;;;;8.70;3.17;;;17.80;99.90;;;;;;5084463;28;20538;-58
2023/05/24 10:03:07;;;;;;;7.97;3.43;;;17.50;99.90;;;;;;5083149;28;20284;-59
2023/05/24 10:05:35;;;;;;;11.67;2.90;;;17.50;99.90;;;;;;5063333;28;20202;-58
2023/05/24 10:08:07;;;;;;;8.60;3.77;;;17.20;99.90;;;;;;5087171;28;20226;-58
2023/05/24 10:10:37;;;;;;;7.10;2.60;;;17.10;99.90;;;;;;5086862;28;20201;-58
2023/05/24 10:13:04;;;;;;;6.80;2.60;;;17.50;99.90;;;;;;5086251;28;20273;-58
2023/05/24 10:15:31;;;;;;;7.77;2.83;;;17.60;99.90;;;;;;5087434;28;20698;-58
2023/05/24 10:18:00;;;;;;;5.77;2.30;;;17.60;99.90;;;;;;5082309;28;20208;-58
2023/05/24 10:20:28;;;;;;;12.27;3.33;;;17.30;99.90;;;;;;5086912;28;20194;-58
2023/05/24 10:23:00;;;;;;;10.20;2.60;;;16.80;99.90;;;;;;5085678;28;20241;-58
2023/05/24 10:25:28;;;;;;;8.03;1.93;;;17.10;99.90;;;;;;5086702;28;20197;-58
2023/05/24 10:28:03;;;;;;;10.57;2.57;;;17.00;99.90;;;;;;5085803;28;20658;-58
2023/05/24 10:30:56;;;;;;;10.70;2.87;;;16.60;99.90;;;;;;5084382;28;20661;-60
2023/05/24 10:33:25;;;;;;;7.70;3.27;;;16.60;99.90;;;;;;5082942;28;20221;-58
2023/05/24 10:35:52;;;;;;;7.23;2.80;;;16.40;99.90;;;;;;5069155;28;20195;-60
2023/05/24 10:38:22;;;;;;;8.00;2.73;;;16.10;99.90;;;;;;5084789;28;20205;-59
2023/05/24 10:40:49;;;;;;;8.90;3.10;;;16.20;99.90;;;;;;5082814;28;20624;-58
2023/05/24 10:43:17;;;;;;;12.00;2.87;;;16.40;99.90;;;;;;5085881;28;20199;-58
2023/05/24 10:45:48;;;;;;;8.77;2.13;;;16.00;99.90;;;;;;5086028;28;20200;-58
2023/05/24 10:48:15;;;;;;;8.57;3.20;;;16.00;99.90;;;;;;5083156;28;20212;-58
2023/05/24 10:50:43;;;;;;;7.00;2.37;;;16.30;99.90;;;;;;5083822;28;20202;-58
2023/05/24 10:53:14;;;;;;;12.27;2.60;;;16.40;99.90;;;;;;5083129;28;20283;-58
2023/05/24 10:55:56;;;;;;;7.27;2.50;;;15.90;99.90;;;;;;5085124;28;20287;-58
2023/05/24 10:58:32;;;;;;;6.90;2.30;;;15.80;99.90;;;;;;5086761;28;20237;-63
2023/05/24 11:01:00;;;;;;;6.93;2.60;;;15.90;99.90;;;;;;5085403;28;20250;-58
2023/05/24 11:03:33;;;;;;;10.07;2.40;;;15.70;99.90;;;;;;5064425;28;20200;-58
2023/05/24 11:06:01;;;;;;;8.23;2.30;;;15.60;99.90;;;;;;5083892;28;20204;-58
2023/05/24 11:08:30;;;;;;;6.20;2.40;;;15.80;99.90;;;;;;5083775;28;20220;-58
2023/05/24 11:11:13;;;;;;;10.07;2.60;;;15.80;99.90;;;;;;5075584;28;20616;-58
2023/05/24 11:13:58;;;;;;;11.27;2.93;;;16.10;99.90;;;;;;5075176;28;20201;-58
2023/05/24 11:16:38;;;;;;;9.60;2.63;;;16.40;99.90;;;;;;5078520;28;21015;-58
2023/05/24 11:19:20;;;;;;;7.80;2.77;;;16.50;99.90;;;;;;5059552;28;20201;-58
2023/05/24 11:21:49;;;;;;;10.23;2.77;;;16.30;99.90;;;;;;5082609;28;20204;-59
2023/05/24 11:24:18;;;;;;;14.13;2.90;;;16.30;99.90;;;;;;5081712;28;20332;-58
2023/05/24 11:26:45;;;;;;;10.60;2.60;;;16.10;99.90;;;;;;5081900;28;20228;-58
2023/05/24 11:29:16;;;;;;;7.03;2.17;;;16.30;99.90;;;;;;5082176;28;20227;-59
2023/05/24 11:31:51;;;;;;;9.07;2.53;;;16.50;99.90;;;;;;5082656;28;20661;-58
2023/05/24 11:34:22;;;;;;;7.73;2.30;;;16.50;99.90;;;;;;5084190;28;20318;-58
2023/05/24 11:36:54;;;;;;;9.67;2.23;;;16.30;99.90;;;;;;5081534;28;21577;-58
2023/05/24 11:39:22;;;;;;;6.03;2.20;;;16.10;99.90;;;;;;5083701;28;20218;-58
2023/05/24 11:41:49;;;;;;;7.23;2.57;;;16.10;99.90;;;;;;5068303;28;20219;-58
2023/05/24 11:44:20;;;;;;;5.40;2.60;;;15.80;99.90;;;;;;5086006;28;20204;-58
2023/05/24 11:46:47;;;;;;;5.13;2.20;;;16.00;99.90;;;;;;5084351;28;20656;-60
2023/05/24 11:49:15;;;;;;;7.60;2.30;;;16.20;99.90;;;;;;5085366;28;20228;-58
2023/05/24 11:51:43;;;;;;;9.70;2.77;;;16.50;99.90;;;;;;5083059;28;20198;-58
2023/05/24 11:54:10;;;;;;;6.50;2.37;;;16.80;99.90;;;;;;5086769;28;20210;-58
2023/05/24 11:56:37;;;;;;;10.37;2.13;;;17.00;99.90;;;;;;5087555;28;20193;-59
2023/05/24 11:59:24;;;;;;;8.40;2.50;;;17.40;99.90;;;;;;5087454;28;20228;-58
2023/05/24 12:02:03;;;;;;;12.53;2.47;;;17.70;99.90;;;;;;5084950;28;20214;-61
2023/05/24 12:04:31;;;;;;;7.83;2.37;;;17.20;99.90;;;;;;5085023;28;20205;-59
2023/05/24 12:06:59;;;;;;;8.77;3.07;;;16.90;99.90;;;;;;5070304;28;20228;-60
2023/05/24 12:09:27;;;;;;;6.07;1.93;;;17.20;99.90;;;;;;5086994;28;20275;-60
2023/05/24 12:11:56;;;;;;;10.13;2.47;;;17.20;99.90;;;;;;5088467;28;20213;-59
2023/05/24 12:14:27;;;;;;;10.57;2.70;;;17.40;99.90;;;;;;5085836;28;20206;-59
2023/05/24 12:16:55;;;;;;;8.70;2.17;;;17.60;99.90;;;;;;5087637;28;20210;-58
2023/05/24 12:19:28;;;;;;;6.70;2.17;;;17.80;99.90;;;;;;5087601;28;20196;-59
2023/05/24 12:22:03;;;;;;;7.27;2.20;;;17.50;99.90;;;;;;5071851;28;20219;-59
2023/05/24 12:24:31;;;;;;;7.23;2.27;;;17.30;99.90;;;;;;5086935;28;20254;-59
2023/05/24 12:27:06;;;;;;;8.67;2.77;;;17.10;99.90;;;;;;5080638;28;21645;-59
2023/05/24 12:29:36;;;;;;;8.37;2.40;;;17.20;99.90;;;;;;5086602;28;20307;-59
2023/05/24 12:32:04;;;;;;;12.53;2.30;;;16.90;99.90;;;;;;5064119;28;20296;-59
2023/05/24 12:34:31;;;;;;;5.30;2.17;;;17.10;99.90;;;;;;5087671;28;20541;-59
2023/05/24 12:36:58;;;;;;;6.93;2.40;;;17.30;99.90;;;;;;5088659;28;20313;-59
2023/05/24 12:39:31;;;;;;;8.33;2.70;;;17.10;99.90;;;;;;5087899;28;20200;-59
2023/05/24 12:42:00;;;;;;;8.67;2.17;;;16.70;99.90;;;;;;5086414;28;20233;-60
2023/05/24 12:44:28;;;;;;;8.07;2.57;;;16.50;99.90;;;;;;5084107;28;20285;-61
2023/05/24 12:46:56;;;;;;;6.40;2.60;;;16.60;99.90;;;;;;5087287;28;20565;-61
2023/05/24 12:49:24;;;;;;;7.20;2.27;;;16.60;99.90;;;;;;5086475;28;20240;-60